sensor_id;sensor_type;location;lat;lon;timestamp;pressure;altitude;pressure_sealevel;temperature;humidity
77526;BME280;66627;29.424;-98.496;2023-02-28T00:00:14;98280.88;;;29.71;10.75
77526;BME280;66627;29.424;-98.496;2023-02-28T00:02:40;98281.02;;;29.59;10.60
77526;BME280;66627;29.424;-98.496;2023-02-28T00:05:05;98287.96;;;28.75;10.81
77526;BME280;66627;29.424;-98.496;2023-02-28T00:07:29;98288.51;;;28.76;10.92
77526;BME280;66627;29.424;-98.496;2023-02-28T00:09:55;98287.57;;;29.23;11.10
77526;BME280;66627;29.424;-98.496;2023-02-28T00:12:19;98288.66;;;28.99;11.13
77526;BME280;66627;29.424;-98.496;2023-02-28T00:14:44;98291.55;;;28.62;10.98
77526;BME280;66627;29.424;-98.496;2023-02-28T00:17:09;98294.32;;;28.69;10.93
77526;BME280;66627;29.424;-98.496;2023-02-28T00:19:35;98297.11;;;28.54;10.96
77526;BME280;66627;29.424;-98.496;2023-02-28T00:22:00;98298.68;;;28.49;11.01
77526;BME280;66627;29.424;-98.496;2023-02-28T00:24:25;98295.35;;;28.65;11.29
77526;BME280;66627;29.424;-98.496;2023-02-28T00:26:50;98291.26;;;28.73;11.26
77526;BME280;66627;29.424;-98.496;2023-02-28T00:29:16;98287.91;;;28.48;11.32
77526;BME280;66627;29.424;-98.496;2023-02-28T00:31:40;98293.31;;;28.06;11.63
77526;BME280;66627;29.424;-98.496;2023-02-28T00:34:06;98298.19;;;27.77;11.92
77526;BME280;66627;29.424;-98.496;2023-02-28T00:36:31;98302.35;;;27.08;11.96
77526;BME280;66627;29.424;-98.496;2023-02-28T00:38:56;98306.97;;;28.00;11.88
77526;BME280;66627;29.424;-98.496;2023-02-28T00:41:21;98310.34;;;27.63;12.13
77526;BME280;66627;29.424;-98.496;2023-02-28T00:43:46;98308.91;;;27.86;12.10
77526;BME280;66627;29.424;-98.496;2023-02-28T00:46:11;98306.44;;;27.25;12.32
77526;BME280;66627;29.424;-98.496;2023-02-28T00:48:37;98315.80;;;26.70;12.68
77526;BME280;66627;29.424;-98.496;2023-02-28T00:51:02;98322.92;;;26.81;12.90
77526;BME280;66627;29.424;-98.496;2023-02-28T00:53:27;98325.91;;;26.53;13.31
77526;BME280;66627;29.424;-98.496;2023-02-28T00:55:53;98325.38;;;25.97;13.24
77526;BME280;66627;29.424;-98.496;2023-02-28T00:58:17;98327.98;;;26.05;13.27
77526;BME280;66627;29.424;-98.496;2023-02-28T01:00:43;98327.42;;;25.61;13.79
77526;BME280;66627;29.424;-98.496;2023-02-28T01:03:08;98333.02;;;26.22;13.55
77526;BME280;66627;29.424;-98.496;2023-02-28T01:05:33;98335.64;;;25.66;13.84
77526;BME280;66627;29.424;-98.496;2023-02-28T01:07:58;98336.56;;;25.88;13.80
77526;BME280;66627;29.424;-98.496;2023-02-28T01:10:24;98346.47;;;26.21;13.78
77526;BME280;66627;29.424;-98.496;2023-02-28T01:12:49;98348.28;;;25.46;15.09
77526;BME280;66627;29.424;-98.496;2023-02-28T01:15:15;98348.06;;;25.98;14.58
77526;BME280;66627;29.424;-98.496;2023-02-28T01:17:40;98353.46;;;25.55;15.07
77526;BME280;66627;29.424;-98.496;2023-02-28T01:20:06;98353.84;;;25.12;14.78
77526;BME280;66627;29.424;-98.496;2023-02-28T01:22:31;98356.03;;;25.24;14.71
77526;BME280;66627;29.424;-98.496;2023-02-28T01:24:56;98356.65;;;25.22;14.76
77526;BME280;66627;29.424;-98.496;2023-02-28T01:27:21;98357.36;;;25.18;14.76
77526;BME280;66627;29.424;-98.496;2023-02-28T01:29:47;98359.23;;;24.94;14.95
77526;BME280;66627;29.424;-98.496;2023-02-28T01:32:12;98361.57;;;24.74;14.93
77526;BME280;66627;29.424;-98.496;2023-02-28T01:34:37;98363.16;;;25.20;14.90
77526;BME280;66627;29.424;-98.496;2023-02-28T01:37:02;98368.41;;;24.93;14.96
77526;BME280;66627;29.424;-98.496;2023-02-28T01:39:28;98370.47;;;25.24;15.37
77526;BME280;66627;29.424;-98.496;2023-02-28T01:41:53;98374.06;;;25.14;15.72
77526;BME280;66627;29.424;-98.496;2023-02-28T01:46:44;98381.23;;;24.19;16.00
77526;BME280;66627;29.424;-98.496;2023-02-28T01:49:13;98381.82;;;23.82;16.61
77526;BME280;66627;29.424;-98.496;2023-02-28T01:51:38;98381.14;;;23.36;16.92
77526;BME280;66627;29.424;-98.496;2023-02-28T01:54:02;98381.94;;;23.36;16.75
77526;BME280;66627;29.424;-98.496;2023-02-28T01:56:30;98387.13;;;23.68;16.70
77526;BME280;66627;29.424;-98.496;2023-02-28T01:58:53;98390.08;;;24.31;16.62
77526;BME280;66627;29.424;-98.496;2023-02-28T02:01:17;98392.59;;;24.00;16.85
77526;BME280;66627;29.424;-98.496;2023-02-28T02:03:42;98395.06;;;23.50;16.70
77526;BME280;66627;29.424;-98.496;2023-02-28T02:06:07;98402.07;;;24.26;17.32
77526;BME280;66627;29.424;-98.496;2023-02-28T02:08:32;98402.86;;;24.24;16.58
77526;BME280;66627;29.424;-98.496;2023-02-28T02:11:01;98405.27;;;23.83;16.59
77526;BME280;66627;29.424;-98.496;2023-02-28T02:13:36;98409.32;;;23.53;17.57
77526;BME280;66627;29.424;-98.496;2023-02-28T02:15:56;98409.86;;;23.58;16.98
77526;BME280;66627;29.424;-98.496;2023-02-28T02:18:22;98411.26;;;23.04;17.32
77526;BME280;66627;29.424;-98.496;2023-02-28T02:25:34;98416.88;;;23.52;17.54
77526;BME280;66627;29.424;-98.496;2023-02-28T02:35:16;98430.07;;;22.70;17.67
77526;BME280;66627;29.424;-98.496;2023-02-28T02:37:41;98434.80;;;22.83;17.51
77526;BME280;66627;29.424;-98.496;2023-02-28T02:40:10;98438.11;;;22.09;18.07
77526;BME280;66627;29.424;-98.496;2023-02-28T02:42:34;98445.36;;;21.99;17.71
77526;BME280;66627;29.424;-98.496;2023-02-28T02:44:58;98444.97;;;21.85;18.28
77526;BME280;66627;29.424;-98.496;2023-02-28T02:47:21;98452.54;;;22.35;18.28
77526;BME280;66627;29.424;-98.496;2023-02-28T02:49:48;98461.54;;;21.97;18.23
77526;BME280;66627;29.424;-98.496;2023-02-28T02:52:12;98466.42;;;22.21;17.77
77526;BME280;66627;29.424;-98.496;2023-02-28T02:54:37;98466.90;;;22.09;18.79
77526;BME280;66627;29.424;-98.496;2023-02-28T02:57:04;98469.36;;;22.32;18.32
77526;BME280;66627;29.424;-98.496;2023-02-28T02:59:26;98471.03;;;21.79;18.92
77526;BME280;66627;29.424;-98.496;2023-02-28T03:01:54;98469.34;;;22.18;18.86
77526;BME280;66627;29.424;-98.496;2023-02-28T03:04:19;98471.18;;;22.62;19.01
77526;BME280;66627;29.424;-98.496;2023-02-28T03:06:41;98475.03;;;22.18;18.91
77526;BME280;66627;29.424;-98.496;2023-02-28T03:09:07;98479.96;;;22.04;18.85
77526;BME280;66627;29.424;-98.496;2023-02-28T03:11:34;98480.22;;;21.49;18.97
77526;BME280;66627;29.424;-98.496;2023-02-28T03:14:14;98475.39;;;21.80;19.06
77526;BME280;66627;29.424;-98.496;2023-02-28T03:16:33;98475.72;;;21.12;19.56
77526;BME280;66627;29.424;-98.496;2023-02-28T03:18:54;98472.77;;;20.95;19.36
77526;BME280;66627;29.424;-98.496;2023-02-28T03:21:17;98473.28;;;21.02;19.49
77526;BME280;66627;29.424;-98.496;2023-02-28T03:23:45;98473.88;;;20.58;19.90
77526;BME280;66627;29.424;-98.496;2023-02-28T03:26:07;98477.07;;;20.82;19.90
77526;BME280;66627;29.424;-98.496;2023-02-28T03:28:35;98486.78;;;20.60;20.02
77526;BME280;66627;29.424;-98.496;2023-02-28T03:30:59;98486.94;;;21.56;19.45
77526;BME280;66627;29.424;-98.496;2023-02-28T03:33:23;98489.38;;;21.38;19.76
77526;BME280;66627;29.424;-98.496;2023-02-28T03:35:48;98491.89;;;21.33;20.92
77526;BME280;66627;29.424;-98.496;2023-02-28T03:38:12;98489.51;;;21.13;20.15
77526;BME280;66627;29.424;-98.496;2023-02-28T03:40:38;98496.53;;;21.75;20.07
77526;BME280;66627;29.424;-98.496;2023-02-28T03:43:06;98500.92;;;20.95;20.64
77526;BME280;66627;29.424;-98.496;2023-02-28T03:45:29;98496.56;;;20.95;21.68
77526;BME280;66627;29.424;-98.496;2023-02-28T03:47:57;98500.50;;;20.95;21.68
77526;BME280;66627;29.424;-98.496;2023-02-28T03:50:20;98501.52;;;20.79;20.91
77526;BME280;66627;29.424;-98.496;2023-02-28T03:52:47;98502.11;;;20.05;21.41
77526;BME280;66627;29.424;-98.496;2023-02-28T03:55:11;98500.44;;;20.38;21.15
77526;BME280;66627;29.424;-98.496;2023-02-28T03:57:39;98505.54;;;21.04;20.96
77526;BME280;66627;29.424;-98.496;2023-02-28T04:00:03;98499.61;;;20.65;21.18
77526;BME280;66627;29.424;-98.496;2023-02-28T04:02:25;98496.81;;;21.00;20.68
77526;BME280;66627;29.424;-98.496;2023-02-28T04:04:50;98490.93;;;21.07;20.49
77526;BME280;66627;29.424;-98.496;2023-02-28T04:07:16;98496.28;;;19.70;21.65
77526;BME280;66627;29.424;-98.496;2023-02-28T04:09:41;98496.44;;;20.46;21.82
77526;BME280;66627;29.424;-98.496;2023-02-28T04:12:06;98501.32;;;21.13;21.35
77526;BME280;66627;29.424;-98.496;2023-02-28T04:14:31;98504.75;;;20.77;21.53
77526;BME280;66627;29.424;-98.496;2023-02-28T04:16:56;98510.51;;;20.60;22.00
77526;BME280;66627;29.424;-98.496;2023-02-28T04:19:22;98519.30;;;20.04;22.24
77526;BME280;66627;29.424;-98.496;2023-02-28T04:21:49;98524.35;;;19.42;22.32
77526;BME280;66627;29.424;-98.496;2023-02-28T04:24:14;98527.08;;;20.55;21.51
77526;BME280;66627;29.424;-98.496;2023-02-28T04:26:38;98532.41;;;20.08;22.62
77526;BME280;66627;29.424;-98.496;2023-02-28T04:29:05;98537.27;;;20.21;22.79
77526;BME280;66627;29.424;-98.496;2023-02-28T04:31:28;98539.16;;;19.83;23.09
77526;BME280;66627;29.424;-98.496;2023-02-28T04:33:54;98544.79;;;19.98;23.14
77526;BME280;66627;29.424;-98.496;2023-02-28T04:36:19;98548.24;;;19.32;23.48
77526;BME280;66627;29.424;-98.496;2023-02-28T04:38:46;98551.61;;;17.91;25.78
77526;BME280;66627;29.424;-98.496;2023-02-28T04:41:12;98558.09;;;17.78;26.16
77526;BME280;66627;29.424;-98.496;2023-02-28T04:43:35;98560.28;;;17.25;26.92
77526;BME280;66627;29.424;-98.496;2023-02-28T04:46:03;98561.66;;;17.76;26.79
77526;BME280;66627;29.424;-98.496;2023-02-28T04:48:27;98560.52;;;17.51;26.52
77526;BME280;66627;29.424;-98.496;2023-02-28T04:50:51;98557.39;;;17.38;26.94
77526;BME280;66627;29.424;-98.496;2023-02-28T04:53:16;98558.58;;;17.34;26.87
77526;BME280;66627;29.424;-98.496;2023-02-28T04:55:42;98564.26;;;18.19;25.70
77526;BME280;66627;29.424;-98.496;2023-02-28T04:58:08;98568.97;;;18.16;25.79
77526;BME280;66627;29.424;-98.496;2023-02-28T05:00:34;98565.49;;;17.50;26.48
77526;BME280;66627;29.424;-98.496;2023-02-28T05:02:59;98562.38;;;18.38;26.18
77526;BME280;66627;29.424;-98.496;2023-02-28T05:05:24;98562.70;;;18.61;25.26
77526;BME280;66627;29.424;-98.496;2023-02-28T05:07:51;98564.12;;;18.04;26.19
77526;BME280;66627;29.424;-98.496;2023-02-28T05:10:16;98565.68;;;18.58;25.59
77526;BME280;66627;29.424;-98.496;2023-02-28T05:12:42;98566.81;;;18.86;25.45
77526;BME280;66627;29.424;-98.496;2023-02-28T05:15:08;98566.37;;;18.96;25.86
77526;BME280;66627;29.424;-98.496;2023-02-28T05:17:32;98565.36;;;19.24;25.44
77526;BME280;66627;29.424;-98.496;2023-02-28T05:19:57;98565.17;;;18.80;25.78
77526;BME280;66627;29.424;-98.496;2023-02-28T05:22:23;98566.51;;;18.38;25.96
77526;BME280;66627;29.424;-98.496;2023-02-28T05:24:48;98574.84;;;17.75;26.85
77526;BME280;66627;29.424;-98.496;2023-02-28T05:27:13;98573.63;;;18.24;26.53
77526;BME280;66627;29.424;-98.496;2023-02-28T05:29:39;98576.82;;;18.38;26.56
77526;BME280;66627;29.424;-98.496;2023-02-28T05:32:05;98572.95;;;18.15;26.87
77526;BME280;66627;29.424;-98.496;2023-02-28T05:34:30;98570.85;;;18.50;26.36
77526;BME280;66627;29.424;-98.496;2023-02-28T05:36:55;98571.51;;;18.86;25.51
77526;BME280;66627;29.424;-98.496;2023-02-28T05:39:21;98568.31;;;18.32;27.15
77526;BME280;66627;29.424;-98.496;2023-02-28T05:41:46;98571.69;;;17.96;27.13
77526;BME280;66627;29.424;-98.496;2023-02-28T05:44:12;98573.85;;;17.66;28.01
77526;BME280;66627;29.424;-98.496;2023-02-28T05:46:37;98572.74;;;17.82;27.52
77526;BME280;66627;29.424;-98.496;2023-02-28T05:49:02;98575.67;;;17.45;28.00
77526;BME280;66627;29.424;-98.496;2023-02-28T05:51:27;98578.52;;;16.59;29.01
77526;BME280;66627;29.424;-98.496;2023-02-28T05:53:54;98581.52;;;17.26;28.12
77526;BME280;66627;29.424;-98.496;2023-02-28T05:56:19;98579.98;;;16.64;29.03
77526;BME280;66627;29.424;-98.496;2023-02-28T05:58:44;98578.27;;;16.80;28.93
77526;BME280;66627;29.424;-98.496;2023-02-28T06:01:20;98581.70;;;16.92;28.70
77526;BME280;66627;29.424;-98.496;2023-02-28T06:03:35;98580.85;;;16.81;28.69
77526;BME280;66627;29.424;-98.496;2023-02-28T06:06:00;98583.87;;;17.28;28.45
77526;BME280;66627;29.424;-98.496;2023-02-28T06:08:27;98586.11;;;16.98;29.02
77526;BME280;66627;29.424;-98.496;2023-02-28T06:10:51;98585.42;;;16.76;29.16
77526;BME280;66627;29.424;-98.496;2023-02-28T06:13:16;98582.79;;;16.38;28.93
77526;BME280;66627;29.424;-98.496;2023-02-28T06:15:42;98575.72;;;17.72;28.28
77526;BME280;66627;29.424;-98.496;2023-02-28T06:18:08;98576.08;;;17.90;27.64
77526;BME280;66627;29.424;-98.496;2023-02-28T06:20:33;98575.00;;;18.35;27.92
77526;BME280;66627;29.424;-98.496;2023-02-28T06:22:59;98574.47;;;18.41;27.61
77526;BME280;66627;29.424;-98.496;2023-02-28T06:25:23;98569.53;;;18.44;27.89
77526;BME280;66627;29.424;-98.496;2023-02-28T06:27:48;98562.60;;;17.55;28.88
77526;BME280;66627;29.424;-98.496;2023-02-28T06:30:15;98564.16;;;17.92;28.64
77526;BME280;66627;29.424;-98.496;2023-02-28T06:32:39;98562.26;;;17.82;28.46
77526;BME280;66627;29.424;-98.496;2023-02-28T06:35:05;98559.32;;;17.69;28.76
77526;BME280;66627;29.424;-98.496;2023-02-28T06:37:31;98550.21;;;17.25;29.33
77526;BME280;66627;29.424;-98.496;2023-02-28T06:39:55;98546.52;;;17.63;29.06
77526;BME280;66627;29.424;-98.496;2023-02-28T06:42:20;98544.29;;;17.07;29.78
77526;BME280;66627;29.424;-98.496;2023-02-28T06:44:46;98540.29;;;17.85;29.54
77526;BME280;66627;29.424;-98.496;2023-02-28T06:47:12;98534.49;;;17.61;29.59
77526;BME280;66627;29.424;-98.496;2023-02-28T06:49:37;98534.80;;;18.39;29.49
77526;BME280;66627;29.424;-98.496;2023-02-28T06:52:03;98533.43;;;18.26;29.08
77526;BME280;66627;29.424;-98.496;2023-02-28T06:54:28;98528.58;;;18.00;29.47
77526;BME280;66627;29.424;-98.496;2023-02-28T06:56:53;98529.21;;;17.26;30.51
77526;BME280;66627;29.424;-98.496;2023-02-28T06:59:20;98530.36;;;17.95;30.23
77526;BME280;66627;29.424;-98.496;2023-02-28T07:01:44;98532.98;;;17.70;30.48
77526;BME280;66627;29.424;-98.496;2023-02-28T07:04:09;98528.90;;;17.30;31.25
77526;BME280;66627;29.424;-98.496;2023-02-28T07:06:34;98529.05;;;16.05;32.38
77526;BME280;66627;29.424;-98.496;2023-02-28T07:09:00;98533.51;;;15.50;33.05
77526;BME280;66627;29.424;-98.496;2023-02-28T07:11:28;98532.44;;;15.85;32.63
77526;BME280;66627;29.424;-98.496;2023-02-28T07:13:53;98532.74;;;15.97;32.87
77526;BME280;66627;29.424;-98.496;2023-02-28T07:16:19;98534.59;;;15.68;33.11
77526;BME280;66627;29.424;-98.496;2023-02-28T07:18:44;98534.98;;;15.02;33.94
77526;BME280;66627;29.424;-98.496;2023-02-28T07:21:11;98532.02;;;15.63;33.57
77526;BME280;66627;29.424;-98.496;2023-02-28T07:23:36;98535.15;;;15.77;33.45
77526;BME280;66627;29.424;-98.496;2023-02-28T07:26:01;98537.15;;;16.06;33.32
77526;BME280;66627;29.424;-98.496;2023-02-28T07:28:26;98529.71;;;16.55;32.91
77526;BME280;66627;29.424;-98.496;2023-02-28T07:30:51;98534.87;;;15.66;33.86
77526;BME280;66627;29.424;-98.496;2023-02-28T07:33:16;98541.51;;;15.48;34.40
77526;BME280;66627;29.424;-98.496;2023-02-28T07:35:41;98533.70;;;15.73;34.42
77526;BME280;66627;29.424;-98.496;2023-02-28T07:38:07;98538.08;;;15.35;34.81
77526;BME280;66627;29.424;-98.496;2023-02-28T07:40:32;98540.49;;;15.11;35.49
77526;BME280;66627;29.424;-98.496;2023-02-28T07:43:00;98539.04;;;14.73;35.94
77526;BME280;66627;29.424;-98.496;2023-02-28T07:45:24;98547.04;;;15.24;35.31
77526;BME280;66627;29.424;-98.496;2023-02-28T07:47:49;98545.82;;;15.09;35.51
77526;BME280;66627;29.424;-98.496;2023-02-28T07:50:16;98545.22;;;15.11;35.05
77526;BME280;66627;29.424;-98.496;2023-02-28T07:52:40;98546.55;;;15.74;34.44
77526;BME280;66627;29.424;-98.496;2023-02-28T07:55:08;98543.26;;;15.86;34.66
77526;BME280;66627;29.424;-98.496;2023-02-28T07:57:31;98531.68;;;16.40;34.06
77526;BME280;66627;29.424;-98.496;2023-02-28T07:59:57;98529.88;;;16.88;33.42
77526;BME280;66627;29.424;-98.496;2023-02-28T08:04:47;98526.71;;;16.30;34.30
77526;BME280;66627;29.424;-98.496;2023-02-28T08:07:15;98521.24;;;16.22;35.00
77526;BME280;66627;29.424;-98.496;2023-02-28T08:09:38;98515.12;;;16.33;34.89
77526;BME280;66627;29.424;-98.496;2023-02-28T08:12:05;98518.08;;;16.88;34.42
77526;BME280;66627;29.424;-98.496;2023-02-28T08:14:30;98516.89;;;16.68;34.85
77526;BME280;66627;29.424;-98.496;2023-02-28T08:16:55;98517.49;;;16.62;34.97
77526;BME280;66627;29.424;-98.496;2023-02-28T08:19:21;98514.56;;;16.39;35.47
77526;BME280;66627;29.424;-98.496;2023-02-28T08:21:47;98512.56;;;16.71;35.27
77526;BME280;66627;29.424;-98.496;2023-02-28T08:24:11;98509.72;;;16.15;35.47
77526;BME280;66627;29.424;-98.496;2023-02-28T08:26:37;98508.60;;;16.29;35.16
77526;BME280;66627;29.424;-98.496;2023-02-28T08:29:03;98500.94;;;17.05;34.31
77526;BME280;66627;29.424;-98.496;2023-02-28T08:31:28;98506.13;;;16.13;35.22
77526;BME280;66627;29.424;-98.496;2023-02-28T08:33:53;98504.60;;;17.22;34.28
77526;BME280;66627;29.424;-98.496;2023-02-28T08:36:18;98505.06;;;17.19;34.03
77526;BME280;66627;29.424;-98.496;2023-02-28T08:38:44;98506.41;;;16.65;35.06
77526;BME280;66627;29.424;-98.496;2023-02-28T08:41:11;98508.66;;;16.47;35.91
77526;BME280;66627;29.424;-98.496;2023-02-28T08:43:35;98507.60;;;16.87;35.52
77526;BME280;66627;29.424;-98.496;2023-02-28T08:46:01;98503.21;;;16.81;35.36
77526;BME280;66627;29.424;-98.496;2023-02-28T08:48:28;98502.35;;;16.54;35.60
77526;BME280;66627;29.424;-98.496;2023-02-28T08:50:59;98500.55;;;16.29;36.17
77526;BME280;66627;29.424;-98.496;2023-02-28T08:53:18;98502.07;;;16.58;36.29
77526;BME280;66627;29.424;-98.496;2023-02-28T08:55:43;98503.83;;;16.32;36.45
77526;BME280;66627;29.424;-98.496;2023-02-28T08:58:08;98497.00;;;17.26;35.57
77526;BME280;66627;29.424;-98.496;2023-02-28T09:00:34;98497.80;;;16.30;36.20
77526;BME280;66627;29.424;-98.496;2023-02-28T09:02:59;98494.71;;;17.22;34.90
77526;BME280;66627;29.424;-98.496;2023-02-28T09:05:25;98497.29;;;17.49;35.33
77526;BME280;66627;29.424;-98.496;2023-02-28T09:07:51;98494.96;;;16.92;35.76
77526;BME280;66627;29.424;-98.496;2023-02-28T09:10:16;98487.79;;;17.13;35.98
77526;BME280;66627;29.424;-98.496;2023-02-28T09:12:42;98490.54;;;17.87;35.45
77526;BME280;66627;29.424;-98.496;2023-02-28T09:15:09;98489.43;;;17.63;35.08
77526;BME280;66627;29.424;-98.496;2023-02-28T09:17:33;98488.25;;;17.46;35.56
77526;BME280;66627;29.424;-98.496;2023-02-28T09:19:58;98486.52;;;17.41;35.75
77526;BME280;66627;29.424;-98.496;2023-02-28T09:22:24;98487.60;;;16.77;37.11
77526;BME280;66627;29.424;-98.496;2023-02-28T09:24:49;98489.00;;;16.90;37.60
77526;BME280;66627;29.424;-98.496;2023-02-28T09:27:14;98485.64;;;16.32;38.06
77526;BME280;66627;29.424;-98.496;2023-02-28T09:29:39;98478.80;;;16.41;38.24
77526;BME280;66627;29.424;-98.496;2023-02-28T09:32:05;98473.33;;;17.14;37.57
77526;BME280;66627;29.424;-98.496;2023-02-28T09:34:31;98472.54;;;16.67;38.28
77526;BME280;66627;29.424;-98.496;2023-02-28T09:36:56;98470.24;;;16.16;39.07
77526;BME280;66627;29.424;-98.496;2023-02-28T09:39:22;98468.77;;;16.57;38.79
77526;BME280;66627;29.424;-98.496;2023-02-28T09:41:49;98469.18;;;16.52;38.59
77526;BME280;66627;29.424;-98.496;2023-02-28T09:44:17;98467.72;;;16.72;38.37
77526;BME280;66627;29.424;-98.496;2023-02-28T09:46:42;98465.84;;;16.10;39.20
77526;BME280;66627;29.424;-98.496;2023-02-28T09:49:08;98464.05;;;16.15;39.58
77526;BME280;66627;29.424;-98.496;2023-02-28T09:51:39;98467.97;;;16.53;39.23
77526;BME280;66627;29.424;-98.496;2023-02-28T09:53:56;98461.99;;;15.84;40.30
77526;BME280;66627;29.424;-98.496;2023-02-28T09:56:24;98456.45;;;15.65;40.84
77526;BME280;66627;29.424;-98.496;2023-02-28T09:58:51;98450.27;;;16.11;40.45
77526;BME280;66627;29.424;-98.496;2023-02-28T10:01:19;98452.45;;;16.11;40.46
77526;BME280;66627;29.424;-98.496;2023-02-28T10:03:41;98449.65;;;16.32;39.88
77526;BME280;66627;29.424;-98.496;2023-02-28T10:06:08;98446.25;;;15.99;39.96
77526;BME280;66627;29.424;-98.496;2023-02-28T10:08:32;98448.52;;;16.44;39.70
77526;BME280;66627;29.424;-98.496;2023-02-28T10:10:56;98441.63;;;17.17;38.76
77526;BME280;66627;29.424;-98.496;2023-02-28T10:13:27;98438.21;;;17.28;38.48
77526;BME280;66627;29.424;-98.496;2023-02-28T10:15:48;98436.63;;;16.27;40.06
77526;BME280;66627;29.424;-98.496;2023-02-28T10:18:15;98437.68;;;17.05;38.83
77526;BME280;66627;29.424;-98.496;2023-02-28T10:20:40;98437.27;;;17.24;38.73
77526;BME280;66627;29.424;-98.496;2023-02-28T10:23:09;98438.63;;;16.99;39.21
77526;BME280;66627;29.424;-98.496;2023-02-28T10:25:29;98442.36;;;16.06;40.82
77526;BME280;66627;29.424;-98.496;2023-02-28T10:27:55;98445.09;;;15.99;41.25
77526;BME280;66627;29.424;-98.496;2023-02-28T10:30:18;98451.64;;;15.69;42.03
77526;BME280;66627;29.424;-98.496;2023-02-28T10:32:50;98451.00;;;15.76;42.29
77526;BME280;66627;29.424;-98.496;2023-02-28T10:35:16;98453.40;;;15.57;42.80
77526;BME280;66627;29.424;-98.496;2023-02-28T10:37:38;98454.69;;;15.85;43.08
77526;BME280;66627;29.424;-98.496;2023-02-28T10:40:00;98455.58;;;15.28;43.86
77526;BME280;66627;29.424;-98.496;2023-02-28T10:42:28;98452.41;;;15.70;43.54
77526;BME280;66627;29.424;-98.496;2023-02-28T10:45:06;98451.87;;;15.94;44.21
77526;BME280;66627;29.424;-98.496;2023-02-28T10:47:18;98451.12;;;15.77;43.97
77526;BME280;66627;29.424;-98.496;2023-02-28T10:49:48;98451.72;;;16.03;44.30
77526;BME280;66627;29.424;-98.496;2023-02-28T10:52:09;98459.91;;;16.52;44.25
77526;BME280;66627;29.424;-98.496;2023-02-28T10:54:36;98467.36;;;15.61;44.91
77526;BME280;66627;29.424;-98.496;2023-02-28T10:57:15;98468.97;;;16.10;44.82
77526;BME280;66627;29.424;-98.496;2023-02-28T10:59:29;98481.00;;;16.20;44.69
77526;BME280;66627;29.424;-98.496;2023-02-28T11:01:50;98480.70;;;15.91;44.99
77526;BME280;66627;29.424;-98.496;2023-02-28T11:04:19;98483.92;;;16.03;45.29
77526;BME280;66627;29.424;-98.496;2023-02-28T11:06:41;98485.69;;;15.80;45.03
77526;BME280;66627;29.424;-98.496;2023-02-28T11:09:16;98484.98;;;16.04;45.12
77526;BME280;66627;29.424;-98.496;2023-02-28T11:11:42;98486.57;;;15.51;46.01
77526;BME280;66627;29.424;-98.496;2023-02-28T11:14:03;98484.21;;;15.08;46.74
77526;BME280;66627;29.424;-98.496;2023-02-28T11:16:32;98485.11;;;14.46;47.88
77526;BME280;66627;29.424;-98.496;2023-02-28T11:18:51;98481.32;;;14.52;47.66
77526;BME280;66627;29.424;-98.496;2023-02-28T11:21:20;98480.59;;;15.28;47.25
77526;BME280;66627;29.424;-98.496;2023-02-28T11:23:41;98481.18;;;15.24;46.57
77526;BME280;66627;29.424;-98.496;2023-02-28T11:26:05;98483.46;;;15.33;46.95
77526;BME280;66627;29.424;-98.496;2023-02-28T11:28:32;98486.40;;;14.89;47.88
77526;BME280;66627;29.424;-98.496;2023-02-28T11:31:04;98484.94;;;15.71;47.33
77526;BME280;66627;29.424;-98.496;2023-02-28T11:33:24;98485.09;;;15.41;46.90
77526;BME280;66627;29.424;-98.496;2023-02-28T11:35:49;98486.75;;;15.69;46.41
77526;BME280;66627;29.424;-98.496;2023-02-28T11:38:12;98488.88;;;15.46;46.69
77526;BME280;66627;29.424;-98.496;2023-02-28T11:40:45;98490.42;;;15.49;47.33
77526;BME280;66627;29.424;-98.496;2023-02-28T11:43:10;98492.89;;;15.01;48.50
77526;BME280;66627;29.424;-98.496;2023-02-28T11:45:41;98490.92;;;16.61;45.67
77526;BME280;66627;29.424;-98.496;2023-02-28T11:48:01;98495.20;;;16.07;45.20
77526;BME280;66627;29.424;-98.496;2023-02-28T11:50:33;98493.76;;;16.48;45.39
77526;BME280;66627;29.424;-98.496;2023-02-28T11:52:51;98498.72;;;15.96;45.84
77526;BME280;66627;29.424;-98.496;2023-02-28T11:55:18;98497.53;;;16.03;45.58
77526;BME280;66627;29.424;-98.496;2023-02-28T11:57:51;98500.32;;;16.55;45.89
77526;BME280;66627;29.424;-98.496;2023-02-28T12:00:11;98499.56;;;16.29;45.71
77526;BME280;66627;29.424;-98.496;2023-02-28T12:02:30;98508.58;;;15.54;46.72
77526;BME280;66627;29.424;-98.496;2023-02-28T12:05:02;98507.43;;;15.79;46.42
77526;BME280;66627;29.424;-98.496;2023-02-28T12:07:24;98507.83;;;15.36;47.12
77526;BME280;66627;29.424;-98.496;2023-02-28T12:09:52;98506.97;;;16.07;46.30
77526;BME280;66627;29.424;-98.496;2023-02-28T12:12:18;98503.77;;;16.08;46.61
77526;BME280;66627;29.424;-98.496;2023-02-28T12:17:08;98511.79;;;16.00;45.93
77526;BME280;66627;29.424;-98.496;2023-02-28T12:19:28;98516.27;;;15.79;47.16
77526;BME280;66627;29.424;-98.496;2023-02-28T12:21:59;98527.17;;;15.47;46.95
77526;BME280;66627;29.424;-98.496;2023-02-28T12:24:29;98532.71;;;15.75;46.28
77526;BME280;66627;29.424;-98.496;2023-02-28T12:26:44;98534.32;;;15.34;47.32
77526;BME280;66627;29.424;-98.496;2023-02-28T12:29:16;98539.73;;;15.63;47.42
77526;BME280;66627;29.424;-98.496;2023-02-28T12:31:37;98547.97;;;14.13;48.51
77526;BME280;66627;29.424;-98.496;2023-02-28T12:34:03;98550.29;;;13.60;50.05
77526;BME280;66627;29.424;-98.496;2023-02-28T12:36:23;98554.49;;;14.03;49.87
77526;BME280;66627;29.424;-98.496;2023-02-28T12:38:53;98564.91;;;14.61;48.94
77526;BME280;66627;29.424;-98.496;2023-02-28T12:41:18;98573.13;;;15.61;48.03
77526;BME280;66627;29.424;-98.496;2023-02-28T12:43:44;98579.40;;;15.53;47.01
77526;BME280;66627;29.424;-98.496;2023-02-28T12:46:12;98577.10;;;16.12;46.30
77526;BME280;66627;29.424;-98.496;2023-02-28T12:48:35;98584.98;;;16.28;46.28